Time,TemperatureF,DewpointF,PressureIn,WindDirection,WindDirectionDegrees,WindSpeedMPH,WindSpeedGustMPH,Humidity,HourlyPrecipIn,Conditions,Clouds,dailyrainin,SoftwareType,DateUTC
2013-10-21 00:02:00,38.5,33.5,29.53,SE,135,4.6,4.6,82,0.00,CLR,SCT,0.00,WeatherDisplay:10.37,2013-10-21 08:02:00,
2013-10-21 00:07:00,39.4,32.4,29.53,SE,135,5.8,5.8,76,0.00,CLR,SCT,0.00,WeatherDisplay:10.37,2013-10-21 08:07:00,
2013-10-21 00:12:00,40.3,31.6,29.53,SE,135,4.6,4.6,71,0.00,CLR,SCT,0.00,WeatherDisplay:10.37,2013-10-21 08:12:00,
2013-10-21 00:17:00,40.5,30.4,29.53,SE,135,5.4,5.4,67,0.00,CLR,SCT,0.00,WeatherDisplay:10.37,2013-10-21 08:17:00,
2013-10-21 00:22:00,40.5,29.6,29.53,SE,135,4.6,4.6,65,0.00,CLR,SCT,0.00,WeatherDisplay:10.37,2013-10-21 08:22:00,
2013-10-21 00:27:00,40.5,29.2,29.53,SE,135,4.6,4.6,64,0.00,CLR,SCT,0.00,WeatherDisplay:10.37,2013-10-21 08:27:00,
2013-10-21 00:32:00,40.3,29.4,29.53,SE,135,4.6,4.6,65,0.00,CLR,SCT,0.00,WeatherDisplay:10.37,2013-10-21 08:32:00,
2013-10-21 00:37:00,40.1,28.9,29.53,SE,135,3.5,3.5,64,0.00,CLR,SCT,0.00,WeatherDisplay:10.37,2013-10-21 08:37:00,
2013-10-21 00:42:00,39.9,29.1,29.56,SE,135,3.5,3.5,65,0.00,CLR,SCT,0.00,WeatherDisplay:10.37,2013-10-21 08:42:00,
2013-10-21 00:47:00,39.9,29.1,29.56,SE,135,3.5,3.5,65,0.00,CLR,SCT,0.00,WeatherDisplay:10.37,2013-10-21 08:47:00,
2013-10-21 00:52:00,39.7,28.9,29.56,SE,135,4.6,4.6,65,0.00,CLR,SCT,0.00,WeatherDisplay:10.37,2013-10-21 08:52:00,
2013-10-21 00:57:00,39.6,28.8,29.53,SE,135,4.6,4.6,65,0.00,CLR,SCT,0.00,WeatherDisplay:10.37,2013-10-21 08:57:00,
2013-10-21 01:02:00,39.2,28.4,29.53,SE,135,4.6,4.6,65,0.00,CLR,SCT,0.00,WeatherDisplay:10.37,2013-10-21 09:02:00,
2013-10-21 01:07:00,39.2,28.8,29.53,SE,135,4.6,4.6,66,0.00,CLR,SCT,0.00,WeatherDisplay:10.37,2013-10-21 09:07:00,
2013-10-21 01:12:00,39.2,28.8,29.53,SE,135,3.6,3.6,66,0.00,CLR,SCT,0.00,WeatherDisplay:10.37,2013-10-21 09:12:00,
2013-10-21 01:17:00,39.2,28.8,29.53,SE,135,4.6,4.6,66,0.00,CLR,SCT,0.00,WeatherDisplay:10.37,2013-10-21 09:17:00,
2013-10-21 01:22:00,39.2,28.8,29.53,SE,135,3.6,3.6,66,0.00,CLR,SCT,0.00,WeatherDisplay:10.37,2013-10-21 09:22:00,
2013-10-21 01:27:00,38.8,28.8,29.56,SE,135,3.5,3.5,67,0.00,CLR,SCT,0.00,WeatherDisplay:10.37,2013-10-21 09:27:00,
2013-10-21 01:32:00,39.0,29.0,29.56,SE,135,4.6,4.6,67,0.00,CLR,SCT,0.00,WeatherDisplay:10.37,2013-10-21 09:32:00,
2013-10-21 01:37:00,38.8,29.2,29.56,SE,135,4.6,4.6,68,0.00,CLR,SCT,0.00,WeatherDisplay:10.37,2013-10-21 09:37:00,
2013-10-21 01:42:00,38.7,29.4,29.56,SE,135,4.6,4.6,69,0.00,CLR,SCT,0.00,WeatherDisplay:10.37,2013-10-21 09:42:00,
2013-10-21 01:47:00,38.1,28.8,29.56,SE,135,3.5,3.5,69,0.00,CLR,SCT,0.00,WeatherDisplay:10.37,2013-10-21 09:47:00,
2013-10-21 01:53:00,37.6,28.7,29.56,SE,135,3.6,3.6,70,0.00,CLR,SCT,0.00,WeatherDisplay:10.37,2013-10-21 09:53:00,
2013-10-21 01:58:00,37.6,29.4,29.53,SE,135,3.6,3.6,72,0.00,CLR,SCT,0.00,WeatherDisplay:10.37,2013-10-21 09:58:00,
2013-10-21 02:03:00,37.6,29.4,29.53,SE,135,3.6,3.6,72,0.00,CLR,SCT,0.00,WeatherDisplay:10.37,2013-10-21 10:03:00,
2013-10-21 02:08:00,37.6,29.7,29.53,SE,135,3.5,3.5,73,0.00,CLR,SCT,0.00,WeatherDisplay:10.37,2013-10-21 10:08:00,
2013-10-21 02:13:00,37.6,29.7,29.56,SE,135,4.6,4.6,73,0.00,CLR,SCT,0.00,WeatherDisplay:10.37,2013-10-21 10:13:00,
2013-10-21 02:18:00,37.9,30.1,29.56,SE,135,4.6,4.6,73,0.00,CLR,SCT,0.00,WeatherDisplay:10.37,2013-10-21 10:18:00,
2013-10-21 02:23:00,38.7,30.4,29.56,SE,135,3.5,3.6,72,0.00,CLR,SCT,0.00,WeatherDisplay:10.37,2013-10-21 10:23:00,
2013-10-21 02:28:00,39.2,30.2,29.56,SE,135,3.5,3.6,70,0.00,CLR,SCT,0.00,WeatherDisplay:10.37,2013-10-21 10:28:00,
2013-10-21 02:33:00,39.2,29.5,29.56,SE,135,3.5,3.5,68,0.00,CLR,SCT,0.00,WeatherDisplay:10.37,2013-10-21 10:33:00,
2013-10-21 02:38:00,39.4,29.7,29.56,SE,135,3.5,3.5,68,0.00,CLR,SCT,0.00,WeatherDisplay:10.37,2013-10-21 10:38:00,
2013-10-21 02:43:00,39.6,29.5,29.53,SE,135,4.6,4.6,67,0.00,CLR,SCT,0.00,WeatherDisplay:10.37,2013-10-21 10:43:00,
2013-10-21 02:48:00,39.7,28.9,29.53,SE,135,4.6,4.6,65,0.00,CLR,SCT,0.00,WeatherDisplay:10.37,2013-10-21 10:48:00,
2013-10-21 02:53:00,39.7,28.9,29.53,SE,135,4.6,4.6,65,0.00,CLR,SCT,0.00,WeatherDisplay:10.37,2013-10-21 10:53:00,
2013-10-21 02:58:00,39.7,28.9,29.53,SE,135,5.4,5.4,65,0.00,CLR,SCT,0.00,WeatherDisplay:10.37,2013-10-21 10:58:00,
2013-10-21 03:03:00,39.9,28.7,29.53,SE,135,4.9,4.9,64,0.00,CLR,SCT,0.00,WeatherDisplay:10.37,2013-10-21 11:03:00,
2013-10-21 03:08:00,39.6,28.4,29.53,SE,135,4.6,4.6,64,0.00,CLR,SCT,0.00,WeatherDisplay:10.37,2013-10-21 11:08:00,
2013-10-21 03:13:00,39.4,28.2,29.56,SE,135,4.6,4.6,64,0.00,CLR,SCT,0.00,WeatherDisplay:10.37,2013-10-21 11:13:00,
2013-10-21 03:18:00,39.9,28.7,29.56,SE,135,4.6,4.6,64,0.00,CLR,SCT,0.00,WeatherDisplay:10.37,2013-10-21 11:18:00,
2013-10-21 03:23:00,40.3,28.3,29.56,SE,135,3.5,0.0,62,0.00,CLR,SCT,0.00,WeatherDisplay:10.37,2013-10-21 11:23:00,
2013-10-21 03:28:00,40.3,28.3,29.53,SE,135,3.5,3.5,62,0.00,CLR,SCT,0.00,WeatherDisplay:10.37,2013-10-21 11:28:00,
2013-10-21 03:33:00,40.1,28.1,29.53,SSE,158,2.3,2.3,62,0.00,CLR,SCT,0.00,WeatherDisplay:10.37,2013-10-21 11:33:00,
2013-10-21 03:38:00,39.7,27.8,29.53,SSE,158,2.3,0.0,62,0.00,CLR,SCT,0.00,WeatherDisplay:10.37,2013-10-21 11:38:00,
2013-10-21 03:43:00,39.9,27.9,29.56,SSE,158,0.0,0.0,62,0.00,CLR,SCT,0.00,WeatherDisplay:10.37,2013-10-21 11:43:00,
2013-10-21 03:48:00,39.9,27.9,29.56,SSE,158,2.3,0.0,62,0.00,CLR,SCT,0.00,WeatherDisplay:10.37,2013-10-21 11:48:00,
2013-10-21 03:53:00,39.7,27.8,29.56,SSE,158,0.0,0.0,62,0.00,CLR,SCT,0.00,WeatherDisplay:10.37,2013-10-21 11:53:00,
2013-10-21 03:58:00,40.1,28.5,29.56,SSE,158,0.0,0.0,63,0.00,CLR,SCT,0.00,WeatherDisplay:10.37,2013-10-21 11:58:00,
2013-10-21 04:03:00,40.5,28.1,29.56,SSE,158,0.0,0.0,61,0.00,CLR,SCT,0.00,WeatherDisplay:10.37,2013-10-21 12:03:00,
2013-10-21 04:08:00,40.1,28.1,29.56,SSE,158,2.3,0.0,62,0.00,CLR,SCT,0.00,WeatherDisplay:10.37,2013-10-21 12:08:00,
2013-10-21 04:13:00,40.1,28.1,29.56,SSE,158,2.6,0.0,62,0.00,CLR,SCT,0.00,WeatherDisplay:10.37,2013-10-21 12:13:00,
2013-10-21 04:18:00,40.3,28.3,29.56,SSE,158,2.3,0.0,62,0.00,CLR,SCT,0.00,WeatherDisplay:10.37,2013-10-21 12:18:00,
2013-10-21 04:23:00,39.9,28.3,29.56,SSE,158,3.5,3.5,63,0.00,CLR,SCT,0.00,WeatherDisplay:10.37,2013-10-21 12:23:00,
2013-10-21 04:28:00,40.3,29.1,29.56,SE,135,4.6,4.6,64,0.00,CLR,SCT,0.00,WeatherDisplay:10.37,2013-10-21 12:28:00,
2013-10-21 04:33:00,40.3,28.7,29.56,SE,135,5.8,5.8,63,0.00,CLR,SCT,0.00,WeatherDisplay:10.37,2013-10-21 12:33:00,
2013-10-21 04:38:00,40.3,28.3,29.56,SE,135,4.9,4.9,62,0.00,CLR,SCT,0.00,WeatherDisplay:10.37,2013-10-21 12:38:00,
2013-10-21 04:43:00,40.3,28.7,29.56,SE,135,4.6,4.6,63,0.00,CLR,SCT,0.00,WeatherDisplay:10.37,2013-10-21 12:43:00,
2013-10-21 04:48:00,40.6,28.2,29.56,SE,135,5.8,5.8,61,0.00,CLR,SCT,0.00,WeatherDisplay:10.37,2013-10-21 12:48:00,
2013-10-21 04:53:00,40.1,28.1,29.56,SE,135,5.8,5.8,62,0.00,CLR,SCT,0.00,WeatherDisplay:10.37,2013-10-21 12:53:00,
2013-10-21 04:58:00,39.9,28.3,29.56,SSW,202,5.8,5.8,63,0.00,CLR,SCT,0.00,WeatherDisplay:10.37,2013-10-21 12:58:00,
2013-10-21 05:03:00,39.6,28.4,29.56,SSW,202,2.6,0.0,64,0.00,CLR,SCT,0.00,WeatherDisplay:10.37,2013-10-21 13:03:00,
2013-10-21 05:08:00,39.7,28.9,29.56,SSE,158,3.5,3.5,65,0.00,CLR,SCT,0.00,WeatherDisplay:10.37,2013-10-21 13:08:00,
2013-10-21 05:13:00,39.6,28.8,29.56,SSE,158,0.0,0.0,65,0.00,CLR,SCT,0.00,WeatherDisplay:10.37,2013-10-21 13:13:00,
2013-10-21 05:18:00,39.4,29.0,29.56,SSE,158,0.0,0.0,66,0.00,CLR,SCT,0.00,WeatherDisplay:10.37,2013-10-21 13:18:00,
2013-10-21 05:23:00,39.6,29.9,29.56,SSE,158,0.0,0.0,68,0.00,CLR,SCT,0.00,WeatherDisplay:10.37,2013-10-21 13:23:00,
2013-10-21 05:28:00,39.4,29.7,29.56,SSE,158,0.0,0.0,68,0.00,CLR,SCT,0.00,WeatherDisplay:10.37,2013-10-21 13:28:00,
2013-10-21 05:33:00,39.4,30.1,29.56,SSE,158,0.0,0.0,69,0.00,CLR,SCT,0.00,WeatherDisplay:10.37,2013-10-21 13:33:00,
2013-10-21 05:38:00,39.4,30.4,29.56,SSE,158,0.0,0.0,70,0.00,CLR,SCT,0.00,WeatherDisplay:10.37,2013-10-21 13:38:00,
2013-10-21 05:43:00,39.9,31.3,29.56,South,180,0.0,0.0,71,0.00,CLR,SCT,0.00,WeatherDisplay:10.37,2013-10-21 13:43:00,
2013-10-21 05:48:00,39.9,31.6,29.56,South,180,0.0,0.0,72,0.00,CLR,SCT,0.00,WeatherDisplay:10.37,2013-10-21 13:48:00,
2013-10-21 05:53:00,39.9,31.6,29.56,South,180,0.0,0.0,72,0.00,CLR,SCT,0.00,WeatherDisplay:10.37,2013-10-21 13:53:00,
2013-10-21 05:58:00,39.9,32.0,29.56,South,180,0.0,0.0,73,0.00,CLR,SCT,0.00,WeatherDisplay:10.37,2013-10-21 13:58:00,
2013-10-21 06:03:00,39.2,31.9,29.56,South,180,0.0,0.0,75,0.00,CLR,SCT,0.00,WeatherDisplay:10.37,2013-10-21 14:03:00,
2013-10-21 06:08:00,39.0,32.7,29.56,South,180,0.0,0.0,78,0.00,CLR,SCT,0.00,WeatherDisplay:10.37,2013-10-21 14:08:00,
2013-10-21 06:13:00,38.8,32.9,29.56,South,180,0.0,0.0,79,0.00,CLR,SCT,0.00,WeatherDisplay:10.37,2013-10-21 14:13:00,
2013-10-21 06:18:00,38.8,33.8,29.56,South,180,0.0,0.0,82,0.00,CLR,SCT,0.00,WeatherDisplay:10.37,2013-10-21 14:18:00,
2013-10-21 06:23:00,38.8,34.1,29.56,South,180,0.0,0.0,83,0.00,CLR,SCT,0.00,WeatherDisplay:10.37,2013-10-21 14:23:00,
2013-10-21 06:28:00,38.5,34.1,29.56,South,180,0.0,0.0,84,0.00,CLR,SCT,0.00,WeatherDisplay:10.37,2013-10-21 14:28:00,
2013-10-21 06:33:00,38.3,34.2,29.56,South,180,0.0,0.0,85,0.00,CLR,SCT,0.00,WeatherDisplay:10.37,2013-10-21 14:33:00,
2013-10-21 06:38:00,38.1,34.0,29.56,South,180,0.0,0.0,85,0.00,CLR,SCT,0.00,WeatherDisplay:10.37,2013-10-21 14:38:00,
2013-10-21 06:43:00,38.7,34.8,29.56,South,180,0.0,0.0,86,0.00,CLR,SCT,0.00,WeatherDisplay:10.37,2013-10-21 14:43:00,
2013-10-21 06:48:00,38.8,34.7,29.56,South,180,0.0,0.0,85,0.00,CLR,SCT,0.00,WeatherDisplay:10.37,2013-10-21 14:48:00,
2013-10-21 06:53:00,38.7,34.5,29.56,South,180,0.0,0.0,85,0.00,CLR,SCT,0.00,WeatherDisplay:10.37,2013-10-21 14:53:00,
2013-10-21 06:58:00,38.7,34.5,29.56,South,180,0.0,0.0,85,0.00,CLR,SCT,0.00,WeatherDisplay:10.37,2013-10-21 14:58:00,
2013-10-21 07:03:00,38.5,34.4,29.56,South,180,0.0,0.0,85,0.00,CLR,SCT,0.00,WeatherDisplay:10.37,2013-10-21 15:03:00,
2013-10-21 07:08:00,38.5,34.7,29.56,South,180,0.0,0.0,86,0.00,CLR,SCT,0.00,WeatherDisplay:10.37,2013-10-21 15:08:00,
2013-10-21 07:13:00,38.7,35.1,29.56,South,180,0.0,0.0,87,0.00,CLR,SCT,0.00,WeatherDisplay:10.37,2013-10-21 15:13:00,
2013-10-21 07:18:00,38.7,35.4,29.56,South,180,0.0,0.0,88,0.00,CLR,SCT,0.00,WeatherDisplay:10.37,2013-10-21 15:18:00,
2013-10-21 07:23:00,38.7,35.4,29.56,South,180,0.0,0.0,88,0.00,CLR,SCT,0.00,WeatherDisplay:10.37,2013-10-21 15:23:00,
2013-10-21 07:28:00,39.0,35.8,29.56,South,180,0.0,0.0,88,0.00,CLR,SCT,0.00,WeatherDisplay:10.37,2013-10-21 15:28:00,
2013-10-21 07:33:00,39.2,35.9,29.56,South,180,0.0,0.0,88,0.00,CLR,SCT,0.00,WeatherDisplay:10.37,2013-10-21 15:33:00,
2013-10-21 07:39:00,39.2,35.7,29.56,South,180,0.0,0.0,87,0.00,CLR,SCT,0.00,WeatherDisplay:10.37,2013-10-21 15:39:00,
2013-10-21 07:44:00,39.2,35.7,29.56,South,180,0.0,0.0,87,0.00,CLR,SCT,0.00,WeatherDisplay:10.37,2013-10-21 15:44:00,
2013-10-21 07:49:00,38.8,35.3,29.56,South,180,0.0,0.0,87,0.00,CLR,SCT,0.00,WeatherDisplay:10.37,2013-10-21 15:49:00,
2013-10-21 07:54:00,38.7,35.1,29.56,South,180,0.0,0.0,87,0.00,CLR,SCT,0.00,WeatherDisplay:10.37,2013-10-21 15:54:00,
2013-10-21 07:59:00,38.7,35.1,29.56,South,180,0.0,0.0,87,0.00,CLR,SCT,0.00,WeatherDisplay:10.37,2013-10-21 15:59:00,
2013-10-21 08:04:00,38.8,35.6,29.56,South,180,0.0,0.0,88,0.00,CLR,SCT,0.00,WeatherDisplay:10.37,2013-10-21 16:04:00,
2013-10-21 08:09:00,39.0,35.8,29.56,South,180,0.0,0.0,88,0.00,CLR,SCT,0.00,WeatherDisplay:10.37,2013-10-21 16:09:00,
2013-10-21 08:14:00,39.6,36.6,29.56,South,180,0.0,0.0,89,0.00,CLR,SCT,0.00,WeatherDisplay:10.37,2013-10-21 16:14:00,
2013-10-21 08:19:00,39.7,37.0,29.56,South,180,0.0,0.0,90,0.00,CLR,SCT,0.00,WeatherDisplay:10.37,2013-10-21 16:19:00,
2013-10-21 08:24:00,39.9,37.5,29.56,South,180,0.0,0.0,91,0.00,CLR,SCT,0.00,WeatherDisplay:10.37,2013-10-21 16:24:00,
2013-10-21 08:29:00,40.1,37.7,29.56,South,180,0.0,0.0,91,0.00,CLR,SCT,0.00,WeatherDisplay:10.37,2013-10-21 16:29:00,
2013-10-21 08:34:00,40.3,38.1,29.56,East,90,0.0,0.0,92,0.00,CLR,SCT,0.00,WeatherDisplay:10.37,2013-10-21 16:34:00,
2013-10-21 08:39:00,40.5,38.3,29.56,East,90,2.6,0.0,92,0.00,CLR,SCT,0.00,WeatherDisplay:10.37,2013-10-21 16:39:00,
2013-10-21 08:44:00,40.3,38.1,29.56,East,90,2.3,0.0,92,0.00,CLR,SCT,0.00,WeatherDisplay:10.37,2013-10-21 16:44:00,
2013-10-21 08:49:00,39.9,37.8,29.56,East,90,0.0,0.0,92,0.00,CLR,SCT,0.00,WeatherDisplay:10.37,2013-10-21 16:49:00,
2013-10-21 08:54:00,39.4,37.2,29.56,East,90,0.0,0.0,92,0.00,CLR,SCT,0.00,WeatherDisplay:10.37,2013-10-21 16:54:00,
2013-10-21 08:59:00,39.2,36.8,29.56,East,90,0.0,0.0,91,0.00,CLR,SCT,0.00,WeatherDisplay:10.37,2013-10-21 16:59:00,
2013-10-21 09:04:00,38.8,36.4,29.56,East,90,0.0,0.0,91,0.00,CLR,SCT,0.00,WeatherDisplay:10.37,2013-10-21 17:04:00,
2013-10-21 09:09:00,38.8,36.2,29.56,East,90,0.0,0.0,90,0.00,CLR,SCT,0.00,WeatherDisplay:10.37,2013-10-21 17:09:00,
2013-10-21 09:14:00,38.8,35.9,29.56,East,90,0.0,0.0,89,0.00,CLR,SCT,0.00,WeatherDisplay:10.37,2013-10-21 17:14:00,
2013-10-21 09:19:00,38.8,35.6,29.56,East,90,0.0,0.0,88,0.00,CLR,SCT,0.00,WeatherDisplay:10.37,2013-10-21 17:19:00,
2013-10-21 09:24:00,38.7,35.4,29.59,East,90,0.0,0.0,88,0.00,CLR,SCT,0.00,WeatherDisplay:10.37,2013-10-21 17:24:00,
2013-10-21 09:29:00,38.7,35.1,29.59,East,90,0.0,0.0,87,0.00,CLR,SCT,0.00,WeatherDisplay:10.37,2013-10-21 17:29:00,
2013-10-21 09:34:00,39.0,35.8,29.59,East,90,0.0,0.0,88,0.00,CLR,SCT,0.00,WeatherDisplay:10.37,2013-10-21 17:34:00,
2013-10-21 09:39:00,39.2,35.7,29.59,East,90,0.0,0.0,87,0.00,CLR,SCT,0.00,WeatherDisplay:10.37,2013-10-21 17:39:00,
2013-10-21 09:44:00,39.6,35.7,29.59,East,90,0.0,0.0,86,0.00,CLR,SCT,0.00,WeatherDisplay:10.37,2013-10-21 17:44:00,
2013-10-21 09:49:00,39.7,35.3,29.59,ESE,112,2.3,0.0,84,0.00,CLR,SCT,0.00,WeatherDisplay:10.37,2013-10-21 17:49:00,
2013-10-21 09:54:00,40.1,34.7,29.59,ESE,112,3.6,0.0,81,0.00,CLR,SCT,0.00,WeatherDisplay:10.37,2013-10-21 17:54:00,
2013-10-21 09:59:00,40.3,33.6,29.59,SE,135,3.5,0.0,77,0.00,CLR,SCT,0.00,WeatherDisplay:10.37,2013-10-21 17:59:00,
2013-10-21 10:04:00,40.1,33.1,29.59,SE,135,2.3,2.3,76,0.00,CLR,SCT,0.00,WeatherDisplay:10.37,2013-10-21 18:04:00,
2013-10-21 10:09:00,39.9,33.0,29.59,SE,135,2.3,0.0,76,0.00,CLR,SCT,0.00,WeatherDisplay:10.37,2013-10-21 18:09:00,
2013-10-21 10:14:00,39.9,33.0,29.59,SE,135,2.3,0.0,76,0.00,CLR,SCT,0.00,WeatherDisplay:10.37,2013-10-21 18:14:00,
2013-10-21 10:19:00,39.9,33.0,29.59,SE,135,2.6,0.0,76,0.00,CLR,SCT,0.00,WeatherDisplay:10.37,2013-10-21 18:19:00,
2013-10-21 10:24:00,40.5,33.2,29.59,SE,135,4.6,4.6,75,0.00,CLR,SCT,0.00,WeatherDisplay:10.37,2013-10-21 18:24:00,
2013-10-21 10:29:00,40.5,32.5,29.59,SE,135,2.6,0.0,73,0.00,CLR,SCT,0.00,WeatherDisplay:10.37,2013-10-21 18:29:00,
2013-10-21 10:34:00,40.6,32.3,29.59,SE,135,3.5,3.5,72,0.00,CLR,SCT,0.00,WeatherDisplay:10.37,2013-10-21 18:34:00,
2013-10-21 10:39:00,41.0,32.0,29.59,SE,135,4.6,4.6,70,0.00,CLR,SCT,0.00,WeatherDisplay:10.37,2013-10-21 18:39:00,
2013-10-21 10:44:00,41.7,31.9,29.59,SE,135,4.6,4.6,68,0.00,CLR,SCT,0.00,WeatherDisplay:10.37,2013-10-21 18:44:00,
2013-10-21 10:49:00,42.1,31.9,29.59,SE,135,3.5,3.5,67,0.00,CLR,SCT,0.00,WeatherDisplay:10.37,2013-10-21 18:49:00,
2013-10-21 10:54:00,42.1,31.5,29.59,SE,135,4.6,4.6,66,0.00,CLR,SCT,0.00,WeatherDisplay:10.37,2013-10-21 18:54:00,
2013-10-21 10:59:00,42.4,32.3,29.59,SE,135,3.5,3.5,67,0.00,CLR,SCT,0.00,WeatherDisplay:10.37,2013-10-21 18:59:00,
2013-10-21 11:04:00,42.8,31.8,29.59,SE,135,4.6,4.6,65,0.00,CLR,SCT,0.00,WeatherDisplay:10.37,2013-10-21 19:04:00,
2013-10-21 11:09:00,42.8,31.8,29.59,SE,135,5.8,5.8,65,0.00,CLR,SCT,0.00,WeatherDisplay:10.37,2013-10-21 19:09:00,
2013-10-21 11:14:00,43.3,31.2,29.59,SE,135,5.8,5.8,62,0.00,CLR,SCT,0.00,WeatherDisplay:10.37,2013-10-21 19:14:00,
2013-10-21 11:19:00,43.3,31.2,29.59,SE,135,4.6,4.6,62,0.00,CLR,SCT,0.00,WeatherDisplay:10.37,2013-10-21 19:19:00,
2013-10-21 11:24:00,43.0,31.2,29.59,SE,135,4.6,4.6,63,0.00,CLR,SCT,0.00,WeatherDisplay:10.37,2013-10-21 19:24:00,
2013-10-21 11:29:00,42.8,31.1,29.59,SE,135,4.6,4.6,63,0.00,CLR,SCT,0.00,WeatherDisplay:10.37,2013-10-21 19:29:00,
2013-10-21 11:34:00,42.8,31.1,29.59,SE,135,3.5,3.5,63,0.00,CLR,SCT,0.00,WeatherDisplay:10.37,2013-10-21 19:34:00,
2013-10-21 11:39:00,43.3,31.2,29.59,SE,135,4.6,4.6,62,0.00,CLR,SCT,0.00,WeatherDisplay:10.37,2013-10-21 19:39:00,
2013-10-21 11:44:00,43.9,32.1,29.59,SE,135,3.5,3.5,63,0.00,CLR,SCT,0.00,WeatherDisplay:10.37,2013-10-21 19:44:00,
2013-10-21 11:49:00,43.7,31.1,29.59,SE,135,4.6,4.6,61,0.00,CLR,SCT,0.00,WeatherDisplay:10.37,2013-10-21 19:49:00,
2013-10-21 11:54:00,43.5,31.4,29.59,SE,135,4.6,4.6,62,0.00,CLR,SCT,0.00,WeatherDisplay:10.37,2013-10-21 19:54:00,
2013-10-21 11:59:00,43.7,31.9,29.59,SE,135,2.3,0.0,63,0.00,CLR,SCT,0.00,WeatherDisplay:10.37,2013-10-21 19:59:00,
2013-10-21 12:04:00,44.1,32.7,29.59,SE,135,0.0,0.0,64,0.00,CLR,SCT,0.00,WeatherDisplay:10.37,2013-10-21 20:04:00,
2013-10-21 12:09:00,44.2,32.4,29.59,SE,135,0.0,0.0,63,0.00,CLR,SCT,0.00,WeatherDisplay:10.37,2013-10-21 20:09:00,
2013-10-21 12:14:00,44.2,32.0,29.59,SE,135,2.3,0.0,62,0.00,CLR,SCT,0.00,WeatherDisplay:10.37,2013-10-21 20:14:00,
2013-10-21 12:19:00,44.6,32.0,29.59,SE,135,2.3,0.0,61,0.00,CLR,SCT,0.00,WeatherDisplay:10.37,2013-10-21 20:19:00,
2013-10-21 12:24:00,44.6,31.6,29.59,SE,135,2.3,0.0,60,0.00,CLR,SCT,0.00,WeatherDisplay:10.37,2013-10-21 20:24:00,
2013-10-21 12:29:00,44.4,32.2,29.59,SE,135,0.0,0.0,62,0.00,CLR,SCT,0.00,WeatherDisplay:10.37,2013-10-21 20:29:00,
2013-10-21 12:34:00,44.6,32.8,29.59,SE,135,0.0,0.0,63,0.00,CLR,SCT,0.00,WeatherDisplay:10.37,2013-10-21 20:34:00,
2013-10-21 12:39:00,45.1,32.9,29.62,SE,135,3.6,3.6,62,0.00,CLR,SCT,0.00,WeatherDisplay:10.37,2013-10-21 20:39:00,
2013-10-21 12:44:00,45.7,33.8,29.62,SE,135,2.3,0.0,63,0.00,CLR,SCT,0.00,WeatherDisplay:10.37,2013-10-21 20:44:00,
2013-10-21 12:49:00,46.8,34.0,29.62,SE,135,0.0,0.0,61,0.00,CLR,SCT,0.00,WeatherDisplay:10.37,2013-10-21 20:49:00,
2013-10-21 12:54:00,46.6,33.0,29.59,SE,135,4.6,4.6,59,0.00,CLR,SCT,0.00,WeatherDisplay:10.37,2013-10-21 20:54:00,
2013-10-21 12:59:00,46.0,32.9,29.59,SE,135,3.5,3.5,60,0.00,CLR,SCT,0.00,WeatherDisplay:10.37,2013-10-21 20:59:00,
2013-10-21 13:04:00,46.2,33.1,29.59,SE,135,3.5,3.5,60,0.00,CLR,SCT,0.00,WeatherDisplay:10.37,2013-10-21 21:04:00,
2013-10-21 13:09:00,46.6,33.4,29.62,SE,135,2.3,0.0,60,0.00,CLR,SCT,0.00,WeatherDisplay:10.37,2013-10-21 21:09:00,
2013-10-21 13:14:00,47.7,34.0,29.62,SE,135,3.5,0.0,59,0.00,CLR,SCT,0.00,WeatherDisplay:10.37,2013-10-21 21:14:00,
2013-10-21 13:19:00,48.4,33.4,29.62,SE,135,4.6,4.6,56,0.00,CLR,SCT,0.00,WeatherDisplay:10.37,2013-10-21 21:19:00,
2013-10-21 13:24:00,48.0,32.2,29.59,NE,45,2.6,0.0,54,0.00,CLR,SCT,0.00,WeatherDisplay:10.37,2013-10-21 21:24:00,
2013-10-21 13:29:00,49.1,32.2,29.59,SE,135,3.5,0.0,52,0.00,CLR,SCT,0.00,WeatherDisplay:10.37,2013-10-21 21:29:00,
2013-10-21 13:34:00,49.1,32.7,29.59,SE,135,0.0,0.0,53,0.00,CLR,SCT,0.00,WeatherDisplay:10.37,2013-10-21 21:34:00,
2013-10-21 13:40:00,49.3,31.9,29.59,ENE,68,2.3,2.3,51,0.00,CLR,SCT,0.00,WeatherDisplay:10.37,2013-10-21 21:40:00,
2013-10-21 13:45:00,49.1,31.7,29.59,East,90,0.0,0.0,51,0.00,CLR,SCT,0.00,WeatherDisplay:10.37,2013-10-21 21:45:00,
2013-10-21 13:50:00,48.9,31.6,29.59,ESE,112,2.3,0.0,51,0.00,CLR,SCT,0.00,WeatherDisplay:10.37,2013-10-21 21:50:00,
2013-10-21 13:55:00,49.5,31.6,29.59,East,90,0.0,0.0,50,0.00,CLR,SCT,0.00,WeatherDisplay:10.37,2013-10-21 21:55:00,
2013-10-21 14:00:00,49.6,31.7,29.59,East,90,4.6,4.6,50,0.00,CLR,SCT,0.00,WeatherDisplay:10.37,2013-10-21 22:00:00,
2013-10-21 14:05:00,48.6,30.2,29.59,SE,135,4.6,4.6,49,0.00,CLR,SCT,0.00,WeatherDisplay:10.37,2013-10-21 22:05:00,
2013-10-21 14:10:00,49.3,31.4,29.59,East,90,3.5,3.5,50,0.00,CLR,SCT,0.00,WeatherDisplay:10.37,2013-10-21 22:10:00,
2013-10-21 14:15:00,49.1,31.2,29.59,East,90,2.2,0.0,50,0.00,CLR,SCT,0.00,WeatherDisplay:10.37,2013-10-21 22:15:00,
2013-10-21 14:20:00,49.3,31.4,29.59,East,90,0.0,0.0,50,0.00,CLR,SCT,0.00,WeatherDisplay:10.37,2013-10-21 22:20:00,
2013-10-21 14:25:00,49.1,31.7,29.62,East,90,0.0,0.0,51,0.00,CLR,SCT,0.00,WeatherDisplay:10.37,2013-10-21 22:25:00,
2013-10-21 14:30:00,48.4,31.1,29.62,ENE,68,3.5,0.0,51,0.00,CLR,SCT,0.00,WeatherDisplay:10.37,2013-10-21 22:30:00,
2013-10-21 14:35:00,48.2,31.4,29.62,ENE,68,3.1,0.0,52,0.00,CLR,SCT,0.00,WeatherDisplay:10.37,2013-10-21 22:35:00,
2013-10-21 14:40:00,48.4,32.0,29.59,ENE,68,0.0,0.0,53,0.00,CLR,SCT,0.00,WeatherDisplay:10.37,2013-10-21 22:40:00,
2013-10-21 14:45:00,48.7,32.4,29.59,ENE,68,4.6,4.6,53,0.00,CLR,SCT,0.00,WeatherDisplay:10.37,2013-10-21 22:45:00,
2013-10-21 14:50:00,48.6,31.7,29.59,ENE,68,4.6,4.6,52,0.00,CLR,SCT,0.00,WeatherDisplay:10.37,2013-10-21 22:50:00,
2013-10-21 14:55:00,48.4,31.1,29.59,ENE,68,2.6,0.0,51,0.00,CLR,SCT,0.00,WeatherDisplay:10.37,2013-10-21 22:55:00,
2013-10-21 15:00:00,48.0,30.7,29.59,ENE,68,4.6,4.6,51,0.00,CLR,SCT,0.00,WeatherDisplay:10.37,2013-10-21 23:00:00,
2013-10-21 15:05:00,48.0,30.7,29.59,ENE,68,5.8,5.8,51,0.00,CLR,SCT,0.00,WeatherDisplay:10.37,2013-10-21 23:05:00,
2013-10-21 15:10:00,48.2,30.9,29.59,ENE,68,4.0,4.0,51,0.00,CLR,SCT,0.00,WeatherDisplay:10.37,2013-10-21 23:10:00,
2013-10-21 15:15:00,48.6,31.2,29.59,ENE,68,0.0,0.0,51,0.00,CLR,SCT,0.00,WeatherDisplay:10.37,2013-10-21 23:15:00,
2013-10-21 15:20:00,48.6,30.7,29.59,ENE,68,3.5,3.5,50,0.00,CLR,SCT,0.00,WeatherDisplay:10.37,2013-10-21 23:20:00,
2013-10-21 15:25:00,48.2,30.4,29.59,ENE,68,0.0,0.0,50,0.00,CLR,SCT,0.00,WeatherDisplay:10.37,2013-10-21 23:25:00,
2013-10-21 15:30:00,47.8,30.6,29.59,ENE,68,3.5,3.6,51,0.00,CLR,SCT,0.00,WeatherDisplay:10.37,2013-10-21 23:30:00,
2013-10-21 15:35:00,47.8,30.6,29.59,ENE,68,3.5,0.0,51,0.00,CLR,SCT,0.00,WeatherDisplay:10.37,2013-10-21 23:35:00,
2013-10-21 15:40:00,48.0,31.2,29.59,ENE,68,0.0,0.0,52,0.00,CLR,SCT,0.00,WeatherDisplay:10.37,2013-10-21 23:40:00,
2013-10-21 15:45:00,48.0,31.2,29.59,ENE,68,3.5,3.5,52,0.00,CLR,SCT,0.00,WeatherDisplay:10.37,2013-10-21 23:45:00,
2013-10-21 15:50:00,48.0,31.2,29.59,ENE,68,0.0,0.0,52,0.00,CLR,SCT,0.00,WeatherDisplay:10.37,2013-10-21 23:50:00,
2013-10-21 15:55:00,48.0,31.2,29.59,ENE,68,3.5,0.0,52,0.00,CLR,SCT,0.00,WeatherDisplay:10.37,2013-10-21 23:55:00,
2013-10-21 16:00:00,48.0,30.7,29.59,ENE,68,3.5,0.0,51,0.00,CLR,SCT,0.00,WeatherDisplay:10.37,2013-10-22 00:00:00,
2013-10-21 16:05:00,48.0,31.2,29.59,ENE,68,3.5,0.0,52,0.00,CLR,SCT,0.00,WeatherDisplay:10.37,2013-10-22 00:05:00,
2013-10-21 16:10:00,47.8,30.6,29.59,ENE,68,3.1,0.0,51,0.00,CLR,SCT,0.00,WeatherDisplay:10.37,2013-10-22 00:10:00,
2013-10-21 16:15:00,47.8,31.0,29.59,ENE,68,3.5,0.0,52,0.00,CLR,SCT,0.00,WeatherDisplay:10.37,2013-10-22 00:15:00,
2013-10-21 16:20:00,47.7,30.4,29.59,ENE,68,5.8,5.8,51,0.00,CLR,SCT,0.00,WeatherDisplay:10.37,2013-10-22 00:20:00,
2013-10-21 16:25:00,47.5,30.7,29.59,ENE,68,3.5,3.5,52,0.00,CLR,SCT,0.00,WeatherDisplay:10.37,2013-10-22 00:25:00,
2013-10-21 16:30:00,47.5,31.2,29.59,ENE,68,3.5,0.0,53,0.00,CLR,SCT,0.00,WeatherDisplay:10.37,2013-10-22 00:30:00,
2013-10-21 16:35:00,47.3,31.5,29.59,ENE,68,3.5,3.5,54,0.00,CLR,SCT,0.00,WeatherDisplay:10.37,2013-10-22 00:35:00,
2013-10-21 16:40:00,47.3,31.5,29.59,ENE,68,0.0,0.0,54,0.00,CLR,SCT,0.00,WeatherDisplay:10.37,2013-10-22 00:40:00,
2013-10-21 16:45:00,47.1,31.8,29.59,ENE,68,2.3,0.0,55,0.00,CLR,SCT,0.00,WeatherDisplay:10.37,2013-10-22 00:45:00,
2013-10-21 16:50:00,47.1,31.8,29.59,ENE,68,2.3,0.0,55,0.00,CLR,SCT,0.00,WeatherDisplay:10.37,2013-10-22 00:50:00,
2013-10-21 16:55:00,47.1,31.8,29.59,ENE,68,4.6,4.6,55,0.00,CLR,SCT,0.00,WeatherDisplay:10.37,2013-10-22 00:55:00,
2013-10-21 17:00:00,47.1,31.8,29.59,ENE,68,4.6,4.6,55,0.00,CLR,SCT,0.00,WeatherDisplay:10.37,2013-10-22 01:00:00,
2013-10-21 17:05:00,46.9,32.0,29.59,ENE,68,4.6,4.6,56,0.00,CLR,SCT,0.00,WeatherDisplay:10.37,2013-10-22 01:05:00,
2013-10-21 17:10:00,46.9,32.0,29.59,ENE,68,3.5,0.0,56,0.00,CLR,SCT,0.00,WeatherDisplay:10.37,2013-10-22 01:10:00,
2013-10-21 17:15:00,46.9,32.0,29.59,ENE,68,3.5,3.5,56,0.00,CLR,SCT,0.00,WeatherDisplay:10.37,2013-10-22 01:15:00,
2013-10-21 17:20:00,46.8,31.9,29.59,ENE,68,0.0,0.0,56,0.00,CLR,SCT,0.00,WeatherDisplay:10.37,2013-10-22 01:20:00,
2013-10-21 17:25:00,46.8,31.4,29.59,ENE,68,3.1,0.0,55,0.00,CLR,SCT,0.00,WeatherDisplay:10.37,2013-10-22 01:25:00,
2013-10-21 17:30:00,46.6,31.3,29.59,ENE,68,5.8,5.8,55,0.00,CLR,SCT,0.00,WeatherDisplay:10.37,2013-10-22 01:30:00,
2013-10-21 17:35:00,46.4,31.5,29.59,ENE,68,0.0,0.0,56,0.00,CLR,SCT,0.00,WeatherDisplay:10.37,2013-10-22 01:35:00,
2013-10-21 17:40:00,46.2,31.8,29.59,ENE,68,3.5,0.0,57,0.00,CLR,SCT,0.00,WeatherDisplay:10.37,2013-10-22 01:40:00,
2013-10-21 17:45:00,46.0,32.5,29.59,ENE,68,3.5,0.0,59,0.00,CLR,SCT,0.00,WeatherDisplay:10.37,2013-10-22 01:45:00,
2013-10-21 17:50:00,45.7,32.6,29.59,ENE,68,4.5,0.0,60,0.00,CLR,SCT,0.00,WeatherDisplay:10.37,2013-10-22 01:50:00,
2013-10-21 17:54:00,45.5,33.6,29.59,ENE,68,4.6,4.6,63,0.00,CLR,SCT,0.00,WeatherDisplay:10.37,2013-10-22 01:54:00,
2013-10-21 17:59:00,45.5,34.0,29.59,ENE,68,4.6,0.0,64,0.00,CLR,SCT,0.00,WeatherDisplay:10.37,2013-10-22 01:59:00,
2013-10-21 18:04:00,45.1,34.1,29.59,ENE,68,3.5,0.0,65,0.00,CLR,SCT,0.00,WeatherDisplay:10.37,2013-10-22 02:04:00,
2013-10-21 18:09:00,45.0,34.3,29.59,ENE,68,4.6,4.6,66,0.00,CLR,SCT,0.00,WeatherDisplay:10.37,2013-10-22 02:09:00,
2013-10-21 18:14:00,44.8,34.1,29.59,ENE,68,0.0,0.0,66,0.00,CLR,SCT,0.00,WeatherDisplay:10.37,2013-10-22 02:14:00,
2013-10-21 18:19:00,44.6,34.3,29.59,ENE,68,0.0,0.0,67,0.00,CLR,SCT,0.00,WeatherDisplay:10.37,2013-10-22 02:19:00,
2013-10-21 18:24:00,44.1,34.2,29.59,ENE,68,3.5,0.0,68,0.00,CLR,SCT,0.00,WeatherDisplay:10.37,2013-10-22 02:24:00,
2013-10-21 18:29:00,43.7,34.2,29.59,ENE,68,0.0,0.0,69,0.00,CLR,SCT,0.00,WeatherDisplay:10.37,2013-10-22 02:29:00,
2013-10-21 18:34:00,43.5,34.4,29.59,ENE,68,0.0,0.0,70,0.00,CLR,SCT,0.00,WeatherDisplay:10.37,2013-10-22 02:34:00,
2013-10-21 18:39:00,43.0,33.9,29.59,ENE,68,0.0,0.0,70,0.00,CLR,SCT,0.00,WeatherDisplay:10.37,2013-10-22 02:39:00,
2013-10-21 18:44:00,42.8,34.0,29.59,ENE,68,0.0,0.0,71,0.00,CLR,SCT,0.00,WeatherDisplay:10.37,2013-10-22 02:44:00,
2013-10-21 18:49:00,42.4,34.4,29.59,ENE,68,0.0,0.0,73,0.00,CLR,SCT,0.00,WeatherDisplay:10.37,2013-10-22 02:49:00,
2013-10-21 18:54:00,42.3,34.6,29.59,ENE,68,0.0,0.0,74,0.00,CLR,SCT,0.00,WeatherDisplay:10.37,2013-10-22 02:54:00,
2013-10-21 18:59:00,42.3,34.9,29.59,ENE,68,3.5,3.5,75,0.00,CLR,SCT,0.00,WeatherDisplay:10.37,2013-10-22 02:59:00,
2013-10-21 19:04:00,42.1,34.7,29.59,ENE,68,2.3,0.0,75,0.00,CLR,SCT,0.00,WeatherDisplay:10.37,2013-10-22 03:04:00,
2013-10-21 19:09:00,42.3,34.9,29.59,ENE,68,0.0,0.0,75,0.00,CLR,SCT,0.00,WeatherDisplay:10.37,2013-10-22 03:09:00,
2013-10-21 19:14:00,42.3,34.6,29.59,ENE,68,2.6,0.0,74,0.00,CLR,SCT,0.00,WeatherDisplay:10.37,2013-10-22 03:14:00,
2013-10-21 19:19:00,42.4,34.7,29.59,ENE,68,0.0,0.0,74,0.00,CLR,SCT,0.00,WeatherDisplay:10.37,2013-10-22 03:19:00,
2013-10-21 19:24:00,42.6,34.6,29.59,ENE,68,5.8,5.8,73,0.00,CLR,SCT,0.00,WeatherDisplay:10.37,2013-10-22 03:24:00,
2013-10-21 19:29:00,42.4,34.4,29.59,ENE,68,2.6,0.0,73,0.00,CLR,SCT,0.00,WeatherDisplay:10.37,2013-10-22 03:29:00,
2013-10-21 19:34:00,42.8,34.0,29.59,East,90,2.3,0.0,71,0.00,CLR,SCT,0.00,WeatherDisplay:10.37,2013-10-22 03:34:00,
2013-10-21 19:39:00,42.8,33.7,29.59,East,90,2.3,0.0,70,0.00,CLR,SCT,0.00,WeatherDisplay:10.37,2013-10-22 03:39:00,
2013-10-21 19:44:00,42.6,33.5,29.59,East,90,3.5,3.5,70,0.00,CLR,SCT,0.00,WeatherDisplay:10.37,2013-10-22 03:44:00,
2013-10-21 19:49:00,42.6,32.4,29.59,ENE,68,5.8,5.8,67,0.00,CLR,SCT,0.00,WeatherDisplay:10.37,2013-10-22 03:49:00,
2013-10-21 19:54:00,42.6,32.4,29.59,ENE,68,2.2,0.0,67,0.00,CLR,SCT,0.00,WeatherDisplay:10.37,2013-10-22 03:54:00,
2013-10-21 19:59:00,42.6,32.0,29.59,ENE,68,5.8,5.8,66,0.00,CLR,SCT,0.00,WeatherDisplay:10.37,2013-10-22 03:59:00,
2013-10-21 20:01:00,42.6,32.0,29.59,ENE,68,4.6,4.6,66,0.00,CLR,SCT,0.00,WeatherDisplay:10.37,2013-10-22 04:01:00,
2013-10-21 20:06:00,42.4,31.5,29.59,ENE,68,0.0,0.0,65,0.00,CLR,SCT,0.00,WeatherDisplay:10.37,2013-10-22 04:06:00,
2013-10-21 20:11:00,42.4,31.5,29.59,ENE,68,2.3,0.0,65,0.00,CLR,SCT,0.00,WeatherDisplay:10.37,2013-10-22 04:11:00,
2013-10-21 20:16:00,42.3,31.7,29.59,ENE,68,0.0,0.0,66,0.00,CLR,SCT,0.00,WeatherDisplay:10.37,2013-10-22 04:16:00,
2013-10-21 20:21:00,42.3,31.7,29.59,ENE,68,0.0,0.0,66,0.00,CLR,SCT,0.00,WeatherDisplay:10.37,2013-10-22 04:21:00,
2013-10-21 20:26:00,42.1,31.9,29.59,ENE,68,0.0,0.0,67,0.00,CLR,SCT,0.00,WeatherDisplay:10.37,2013-10-22 04:26:00,
2013-10-21 20:31:00,42.1,32.3,29.59,ENE,68,0.0,0.0,68,0.00,CLR,SCT,0.00,WeatherDisplay:10.37,2013-10-22 04:31:00,
2013-10-21 20:36:00,42.1,32.6,29.59,ENE,68,3.1,0.0,69,0.00,CLR,SCT,0.00,WeatherDisplay:10.37,2013-10-22 04:36:00,
2013-10-21 20:41:00,42.1,32.6,29.59,ENE,68,3.5,3.5,69,0.00,CLR,SCT,0.00,WeatherDisplay:10.37,2013-10-22 04:41:00,
2013-10-21 20:46:00,42.1,32.6,29.59,ENE,68,0.0,0.0,69,0.00,CLR,SCT,0.00,WeatherDisplay:10.37,2013-10-22 04:46:00,
2013-10-21 20:51:00,42.1,32.6,29.59,ENE,68,0.0,0.0,69,0.00,CLR,SCT,0.00,WeatherDisplay:10.37,2013-10-22 04:51:00,
2013-10-21 20:56:00,42.3,33.2,29.59,East,90,4.6,4.6,70,0.00,CLR,SCT,0.00,WeatherDisplay:10.37,2013-10-22 04:56:00,
2013-10-21 21:01:00,42.3,32.4,29.59,SE,135,5.8,5.8,68,0.00,CLR,SCT,0.00,WeatherDisplay:10.37,2013-10-22 05:01:00,
2013-10-21 21:06:00,42.3,33.2,29.59,SE,135,4.6,4.6,70,0.00,CLR,SCT,0.00,WeatherDisplay:10.37,2013-10-22 05:06:00,
2013-10-21 21:11:00,42.3,33.5,29.59,SE,135,4.6,4.6,71,0.00,CLR,SCT,0.00,WeatherDisplay:10.37,2013-10-22 05:11:00,
2013-10-21 21:16:00,41.7,33.4,29.59,SE,135,0.0,0.0,72,0.00,CLR,SCT,0.00,WeatherDisplay:10.37,2013-10-22 05:16:00,
2013-10-21 21:21:00,41.7,33.4,29.59,SE,135,0.0,0.0,72,0.00,CLR,SCT,0.00,WeatherDisplay:10.37,2013-10-22 05:21:00,
2013-10-21 21:26:00,41.2,32.5,29.62,SE,135,0.0,0.0,71,0.00,CLR,SCT,0.00,WeatherDisplay:10.37,2013-10-22 05:26:00,
2013-10-21 21:31:00,41.0,32.3,29.62,SE,135,0.0,0.0,71,0.00,CLR,SCT,0.00,WeatherDisplay:10.37,2013-10-22 05:31:00,
2013-10-21 21:36:00,40.5,32.1,29.62,SE,135,0.0,0.0,72,0.00,CLR,SCT,0.00,WeatherDisplay:10.37,2013-10-22 05:36:00,
2013-10-21 21:41:00,40.5,32.5,29.59,SE,135,0.0,0.0,73,0.00,CLR,SCT,0.00,WeatherDisplay:10.37,2013-10-22 05:41:00,
2013-10-21 21:46:00,40.5,32.8,29.59,SE,135,0.0,0.0,74,0.00,CLR,SCT,0.00,WeatherDisplay:10.37,2013-10-22 05:46:00,
2013-10-21 21:51:00,40.3,32.6,29.59,SE,135,0.0,0.0,74,0.00,CLR,SCT,0.00,WeatherDisplay:10.37,2013-10-22 05:51:00,
2013-10-21 21:56:00,39.7,32.5,29.62,SE,135,0.0,0.0,75,0.00,CLR,SCT,0.00,WeatherDisplay:10.37,2013-10-22 05:56:00,
2013-10-21 22:01:00,39.7,32.8,29.62,SE,135,3.5,3.5,76,0.00,CLR,SCT,0.00,WeatherDisplay:10.37,2013-10-22 06:01:00,
2013-10-21 22:06:00,39.9,33.0,29.62,SE,135,7.1,7.1,76,0.00,CLR,SCT,0.00,WeatherDisplay:10.37,2013-10-22 06:06:00,
2013-10-21 22:11:00,40.5,33.2,29.62,SE,135,4.6,4.6,75,0.00,CLR,SCT,0.00,WeatherDisplay:10.37,2013-10-22 06:11:00,
2013-10-21 22:16:00,41.0,33.0,29.62,SE,135,5.8,5.8,73,0.00,CLR,SCT,0.00,WeatherDisplay:10.37,2013-10-22 06:16:00,
2013-10-21 22:21:00,40.6,32.7,29.62,SE,135,0.0,0.0,73,0.00,CLR,SCT,0.00,WeatherDisplay:10.37,2013-10-22 06:21:00,
2013-10-21 22:26:00,40.6,33.0,29.62,SE,135,4.0,4.0,74,0.00,CLR,SCT,0.00,WeatherDisplay:10.37,2013-10-22 06:26:00,
2013-10-21 22:31:00,40.6,33.0,29.62,SE,135,4.6,4.6,74,0.00,CLR,SCT,0.00,WeatherDisplay:10.37,2013-10-22 06:31:00,
2013-10-21 22:37:00,40.6,33.0,29.62,SE,135,2.2,0.0,74,0.00,CLR,SCT,0.00,WeatherDisplay:10.37,2013-10-22 06:37:00,
2013-10-21 22:42:00,40.5,32.8,29.62,ESE,112,0.0,0.0,74,0.00,CLR,SCT,0.00,WeatherDisplay:10.37,2013-10-22 06:42:00,
2013-10-21 22:47:00,40.3,32.6,29.62,ESE,112,0.0,0.0,74,0.00,CLR,SCT,0.00,WeatherDisplay:10.37,2013-10-22 06:47:00,
2013-10-21 22:52:00,40.3,32.6,29.62,ESE,112,0.0,0.0,74,0.00,CLR,SCT,0.00,WeatherDisplay:10.37,2013-10-22 06:52:00,
2013-10-21 22:57:00,39.7,32.5,29.62,ESE,112,0.0,0.0,75,0.00,CLR,SCT,0.00,WeatherDisplay:10.37,2013-10-22 06:57:00,
2013-10-21 23:02:00,39.7,32.5,29.62,East,90,0.0,2.2,75,0.00,CLR,SCT,0.00,WeatherDisplay:10.37,2013-10-22 07:02:00,
2013-10-21 23:07:00,39.6,32.6,29.62,East,90,0.0,0.0,76,0.00,CLR,SCT,0.00,WeatherDisplay:10.37,2013-10-22 07:07:00,
2013-10-21 23:12:00,39.9,33.3,29.62,ENE,68,3.5,0.0,77,0.00,CLR,SCT,0.00,WeatherDisplay:10.37,2013-10-22 07:12:00,
2013-10-21 23:17:00,39.6,32.9,29.62,ENE,68,2.3,0.0,77,0.00,CLR,SCT,0.00,WeatherDisplay:10.37,2013-10-22 07:17:00,
2013-10-21 23:22:00,39.4,32.8,29.62,ENE,68,0.0,0.0,77,0.00,CLR,SCT,0.00,WeatherDisplay:10.37,2013-10-22 07:22:00,
2013-10-21 23:27:00,39.2,32.6,29.62,ENE,68,0.0,0.0,77,0.00,CLR,SCT,0.00,WeatherDisplay:10.37,2013-10-22 07:27:00,
2013-10-21 23:32:00,39.0,33.1,29.62,ENE,68,0.0,0.0,79,0.00,CLR,SCT,0.00,WeatherDisplay:10.37,2013-10-22 07:32:00,
2013-10-21 23:37:00,38.8,32.9,29.62,ENE,68,0.0,0.0,79,0.00,CLR,SCT,0.00,WeatherDisplay:10.37,2013-10-22 07:37:00,
2013-10-21 23:42:00,39.4,34.0,29.62,ENE,68,4.6,0.0,81,0.00,CLR,SCT,0.00,WeatherDisplay:10.37,2013-10-22 07:42:00,
2013-10-21 23:47:00,39.6,34.2,29.62,ENE,68,3.5,3.5,81,0.00,CLR,SCT,0.00,WeatherDisplay:10.37,2013-10-22 07:47:00,
2013-10-21 23:52:00,39.7,34.4,29.62,East,90,4.9,4.9,81,0.00,CLR,SCT,0.00,WeatherDisplay:10.37,2013-10-22 07:52:00,
2013-10-21 23:57:00,39.7,34.1,29.62,East,90,3.5,0.0,80,0.00,CLR,SCT,0.00,WeatherDisplay:10.37,2013-10-22 07:57:00,